TimeEST,TemperatureF,Dew PointF,Humidity,Sea Level PressureIn,VisibilityMPH,Wind Direction,Wind SpeedMPH,Gust SpeedMPH,PrecipitationIn,Events,Conditions,WindDirDegrees,DateUTC
12:04 AM,75.2,64.4,69,30.14,10.0,ESE,13.8,-,N/A,,Overcast,110,2013-01-15 05:04:00
12:53 AM,73.9,64.0,71,30.13,10.0,ESE,10.4,-,N/A,,Scattered Clouds,110,2013-01-15 05:53:00
1:53 AM,73.0,64.9,76,30.12,10.0,ESE,9.2,-,N/A,,Scattered Clouds,110,2013-01-15 06:53:00
2:53 AM,73.0,64.9,76,30.12,10.0,East,9.2,-,N/A,,Scattered Clouds,100,2013-01-15 07:53:00
3:53 AM,73.0,64.0,73,30.10,10.0,East,10.4,-,N/A,,Partly Cloudy,100,2013-01-15 08:53:00
4:53 AM,73.0,64.0,73,30.10,10.0,East,6.9,-,N/A,,Scattered Clouds,90,2013-01-15 09:53:00
5:53 AM,73.9,64.9,73,30.10,10.0,ENE,8.1,-,N/A,,Mostly Cloudy,70,2013-01-15 10:53:00
6:30 AM,73.4,66.2,78,30.11,10.0,East,11.5,-,0.00,Rain,Light Rain,100,2013-01-15 11:30:00
6:53 AM,73.0,66.9,81,30.11,10.0,ESE,5.8,-,0.00,Rain,Light Rain,110,2013-01-15 11:53:00
7:53 AM,75.0,64.9,71,30.12,10.0,ESE,10.4,-,N/A,,Mostly Cloudy,110,2013-01-15 12:53:00
8:16 AM,75.2,64.4,69,30.13,10.0,ESE,11.5,-,N/A,,Mostly Cloudy,120,2013-01-15 13:16:00
8:53 AM,77.0,64.9,66,30.14,10.0,ESE,10.4,-,N/A,,Mostly Cloudy,110,2013-01-15 13:53:00
9:53 AM,77.0,64.9,66,30.14,10.0,East,12.7,-,N/A,,Mostly Cloudy,90,2013-01-15 14:53:00
10:53 AM,75.9,64.9,69,30.13,10.0,ESE,10.4,-,N/A,,Mostly Cloudy,120,2013-01-15 15:53:00
11:36 AM,75.2,66.2,73,30.11,10.0,ESE,13.8,-,0.00,,Mostly Cloudy,110,2013-01-15 16:36:00
11:53 AM,78.1,66.0,66,30.11,10.0,East,16.1,-,0.00,,Mostly Cloudy,100,2013-01-15 16:53:00
12:53 PM,77.0,66.0,69,30.09,10.0,East,12.7,-,0.00,,Mostly Cloudy,90,2013-01-15 17:53:00
1:53 PM,78.1,64.9,64,30.08,10.0,East,13.8,23.0,N/A,,Mostly Cloudy,100,2013-01-15 18:53:00
2:40 PM,78.8,64.4,61,30.07,10.0,SE,12.7,-,N/A,,Mostly Cloudy,140,2013-01-15 19:40:00
2:53 PM,77.0,64.0,64,30.07,10.0,ESE,13.8,-,N/A,,Mostly Cloudy,110,2013-01-15 19:53:00
3:53 PM,77.0,64.0,64,30.07,10.0,ESE,12.7,-,N/A,,Mostly Cloudy,120,2013-01-15 20:53:00
4:53 PM,75.9,64.0,67,30.09,10.0,East,8.1,-,N/A,,Mostly Cloudy,100,2013-01-15 21:53:00
5:53 PM,75.0,64.0,69,30.10,10.0,East,9.2,-,N/A,,Mostly Cloudy,100,2013-01-15 22:53:00
6:53 PM,73.9,63.0,68,30.10,10.0,ESE,6.9,-,N/A,,Scattered Clouds,120,2013-01-15 23:53:00
7:53 PM,73.0,63.0,71,30.09,10.0,ESE,6.9,-,N/A,,Partly Cloudy,120,2013-01-16 00:53:00
8:53 PM,72.0,63.0,73,30.08,10.0,ESE,6.9,-,N/A,,Partly Cloudy,120,2013-01-16 01:53:00
9:53 PM,72.0,63.0,73,30.06,10.0,ESE,9.2,-,N/A,,Partly Cloudy,120,2013-01-16 02:53:00
10:53 PM,71.1,63.0,75,30.05,10.0,ESE,5.8,-,N/A,,Partly Cloudy,120,2013-01-16 03:53:00
11:53 PM,72.0,62.1,71,30.05,10.0,SE,3.5,-,N/A,,Partly Cloudy,130,2013-01-16 04:53:00